sensor_id;sensor_type;location;lat;lon;timestamp;temperature;humidity
34460;DHT22;20704;51.260;22.558;2022-07-29T00:00:42;18.40;99.90
34460;DHT22;20704;51.260;22.558;2022-07-29T00:03:12;18.40;99.90
34460;DHT22;20704;51.260;22.558;2022-07-29T00:05:39;18.50;99.90
34460;DHT22;20704;51.260;22.558;2022-07-29T00:08:06;18.50;99.90
34460;DHT22;20704;51.260;22.558;2022-07-29T00:10:32;18.50;99.90
34460;DHT22;20704;51.260;22.558;2022-07-29T00:12:58;18.40;99.90
34460;DHT22;20704;51.260;22.558;2022-07-29T00:15:25;17.90;99.90
34460;DHT22;20704;51.260;22.558;2022-07-29T00:17:51;17.70;99.90
34460;DHT22;20704;51.260;22.558;2022-07-29T00:20:17;17.70;99.90
34460;DHT22;20704;51.260;22.558;2022-07-29T00:22:43;17.60;99.90
34460;DHT22;20704;51.260;22.558;2022-07-29T00:25:09;17.00;99.90
34460;DHT22;20704;51.260;22.558;2022-07-29T00:27:36;17.10;99.90
34460;DHT22;20704;51.260;22.558;2022-07-29T00:30:04;17.00;99.90
34460;DHT22;20704;51.260;22.558;2022-07-29T00:32:30;17.00;99.90
34460;DHT22;20704;51.260;22.558;2022-07-29T00:34:56;16.70;99.90
34460;DHT22;20704;51.260;22.558;2022-07-29T00:37:40;16.70;99.90
34460;DHT22;20704;51.260;22.558;2022-07-29T00:40:07;16.60;99.90
34460;DHT22;20704;51.260;22.558;2022-07-29T00:42:49;16.60;99.90
34460;DHT22;20704;51.260;22.558;2022-07-29T00:45:16;16.60;99.90
34460;DHT22;20704;51.260;22.558;2022-07-29T00:47:43;16.60;99.90
34460;DHT22;20704;51.260;22.558;2022-07-29T00:50:11;16.40;99.90
34460;DHT22;20704;51.260;22.558;2022-07-29T00:52:39;16.40;99.90
34460;DHT22;20704;51.260;22.558;2022-07-29T00:55:08;16.40;99.90
34460;DHT22;20704;51.260;22.558;2022-07-29T00:57:35;16.50;99.90
34460;DHT22;20704;51.260;22.558;2022-07-29T01:00:04;16.40;99.90
34460;DHT22;20704;51.260;22.558;2022-07-29T01:02:30;16.40;99.90
34460;DHT22;20704;51.260;22.558;2022-07-29T01:04:57;16.40;99.90
34460;DHT22;20704;51.260;22.558;2022-07-29T01:07:25;16.30;99.90
34460;DHT22;20704;51.260;22.558;2022-07-29T01:09:51;16.30;99.90
34460;DHT22;20704;51.260;22.558;2022-07-29T01:12:30;16.30;99.90
34460;DHT22;20704;51.260;22.558;2022-07-29T01:15:00;16.60;99.90
34460;DHT22;20704;51.260;22.558;2022-07-29T01:25:53;16.40;99.90
34460;DHT22;20704;51.260;22.558;2022-07-29T01:28:47;16.40;99.90
34460;DHT22;20704;51.260;22.558;2022-07-29T01:31:19;16.40;99.90
34460;DHT22;20704;51.260;22.558;2022-07-29T01:33:50;16.40;99.90
34460;DHT22;20704;51.260;22.558;2022-07-29T01:36:35;16.40;99.90
34460;DHT22;20704;51.260;22.558;2022-07-29T01:39:14;16.30;99.90
34460;DHT22;20704;51.260;22.558;2022-07-29T01:42:32;16.10;99.90
34460;DHT22;20704;51.260;22.558;2022-07-29T01:44:41;16.00;99.90
34460;DHT22;20704;51.260;22.558;2022-07-29T01:47:15;16.00;99.90
34460;DHT22;20704;51.260;22.558;2022-07-29T01:49:47;16.00;99.90
34460;DHT22;20704;51.260;22.558;2022-07-29T01:52:29;16.00;99.90
34460;DHT22;20704;51.260;22.558;2022-07-29T01:54:59;16.00;99.90
34460;DHT22;20704;51.260;22.558;2022-07-29T01:57:29;16.00;99.90
34460;DHT22;20704;51.260;22.558;2022-07-29T01:59:58;16.00;99.90
34460;DHT22;20704;51.260;22.558;2022-07-29T02:02:27;16.00;99.90
34460;DHT22;20704;51.260;22.558;2022-07-29T02:04:54;16.00;99.90
34460;DHT22;20704;51.260;22.558;2022-07-29T02:07:23;15.90;99.90
34460;DHT22;20704;51.260;22.558;2022-07-29T02:09:51;15.90;99.90
34460;DHT22;20704;51.260;22.558;2022-07-29T02:12:19;16.00;99.90
34460;DHT22;20704;51.260;22.558;2022-07-29T02:14:49;16.10;99.90
34460;DHT22;20704;51.260;22.558;2022-07-29T02:17:31;15.90;99.90
34460;DHT22;20704;51.260;22.558;2022-07-29T02:20:00;15.90;99.90
34460;DHT22;20704;51.260;22.558;2022-07-29T02:22:29;15.90;99.90
34460;DHT22;20704;51.260;22.558;2022-07-29T02:24:57;15.90;99.90
34460;DHT22;20704;51.260;22.558;2022-07-29T02:27:24;15.90;99.90
34460;DHT22;20704;51.260;22.558;2022-07-29T02:29:53;15.90;99.90
34460;DHT22;20704;51.260;22.558;2022-07-29T02:32:21;15.90;99.90
34460;DHT22;20704;51.260;22.558;2022-07-29T02:34:49;15.70;99.90
34460;DHT22;20704;51.260;22.558;2022-07-29T02:37:16;15.70;99.90
34460;DHT22;20704;51.260;22.558;2022-07-29T02:39:44;15.70;99.90
34460;DHT22;20704;51.260;22.558;2022-07-29T02:45:00;15.70;99.90
34460;DHT22;20704;51.260;22.558;2022-07-29T02:47:40;15.60;99.90
34460;DHT22;20704;51.260;22.558;2022-07-29T02:52:47;15.60;99.90
34460;DHT22;20704;51.260;22.558;2022-07-29T02:55:19;15.60;99.90
34460;DHT22;20704;51.260;22.558;2022-07-29T02:57:59;15.50;99.90
34460;DHT22;20704;51.260;22.558;2022-07-29T03:00:31;15.30;99.90
34460;DHT22;20704;51.260;22.558;2022-07-29T03:03:00;15.50;99.90
34460;DHT22;20704;51.260;22.558;2022-07-29T03:05:29;15.50;99.90
34460;DHT22;20704;51.260;22.558;2022-07-29T03:08:04;15.50;99.90
34460;DHT22;20704;51.260;22.558;2022-07-29T03:10:31;15.60;99.90
34460;DHT22;20704;51.260;22.558;2022-07-29T03:12:58;15.60;99.90
34460;DHT22;20704;51.260;22.558;2022-07-29T03:15:24;15.70;99.90
34460;DHT22;20704;51.260;22.558;2022-07-29T03:17:51;15.80;99.90
34460;DHT22;20704;51.260;22.558;2022-07-29T03:20:18;15.80;99.90
34460;DHT22;20704;51.260;22.558;2022-07-29T03:22:45;15.90;99.90
34460;DHT22;20704;51.260;22.558;2022-07-29T03:25:15;16.00;99.90
34460;DHT22;20704;51.260;22.558;2022-07-29T03:27:43;16.00;99.90
34460;DHT22;20704;51.260;22.558;2022-07-29T03:30:10;16.10;99.90
34460;DHT22;20704;51.260;22.558;2022-07-29T03:32:37;16.20;99.90
34460;DHT22;20704;51.260;22.558;2022-07-29T03:35:04;16.20;99.90
34460;DHT22;20704;51.260;22.558;2022-07-29T03:37:30;16.30;99.90
34460;DHT22;20704;51.260;22.558;2022-07-29T03:39:58;16.40;99.90
34460;DHT22;20704;51.260;22.558;2022-07-29T03:42:30;16.50;99.90
34460;DHT22;20704;51.260;22.558;2022-07-29T03:44:59;16.70;99.90
34460;DHT22;20704;51.260;22.558;2022-07-29T03:47:28;16.80;99.90
34460;DHT22;20704;51.260;22.558;2022-07-29T03:50:05;16.90;99.90
34460;DHT22;20704;51.260;22.558;2022-07-29T03:52:32;17.00;99.90
34460;DHT22;20704;51.260;22.558;2022-07-29T03:54:59;17.10;99.90
34460;DHT22;20704;51.260;22.558;2022-07-29T03:57:27;17.10;99.90
34460;DHT22;20704;51.260;22.558;2022-07-29T03:59:54;17.20;99.90
34460;DHT22;20704;51.260;22.558;2022-07-29T04:02:21;17.20;99.90
34460;DHT22;20704;51.260;22.558;2022-07-29T04:04:47;17.30;99.90
34460;DHT22;20704;51.260;22.558;2022-07-29T04:07:14;17.20;99.90
34460;DHT22;20704;51.260;22.558;2022-07-29T04:09:41;17.30;99.90
34460;DHT22;20704;51.260;22.558;2022-07-29T04:12:07;17.40;99.90
34460;DHT22;20704;51.260;22.558;2022-07-29T04:14:35;17.40;99.90
34460;DHT22;20704;51.260;22.558;2022-07-29T04:17:03;17.50;99.90
34460;DHT22;20704;51.260;22.558;2022-07-29T04:19:29;17.50;99.90
34460;DHT22;20704;51.260;22.558;2022-07-29T04:21:56;17.70;99.90
34460;DHT22;20704;51.260;22.558;2022-07-29T04:24:22;17.60;99.90
34460;DHT22;20704;51.260;22.558;2022-07-29T04:26:48;17.80;99.90
34460;DHT22;20704;51.260;22.558;2022-07-29T04:29:15;18.20;99.90
34460;DHT22;20704;51.260;22.558;2022-07-29T04:31:41;18.30;99.90
34460;DHT22;20704;51.260;22.558;2022-07-29T04:34:08;18.70;99.90
34460;DHT22;20704;51.260;22.558;2022-07-29T04:36:35;18.90;99.90
34460;DHT22;20704;51.260;22.558;2022-07-29T04:39:00;18.50;99.90
34460;DHT22;20704;51.260;22.558;2022-07-29T04:41:27;18.80;99.90
34460;DHT22;20704;51.260;22.558;2022-07-29T04:43:54;19.10;99.90
34460;DHT22;20704;51.260;22.558;2022-07-29T04:46:20;19.30;99.90
34460;DHT22;20704;51.260;22.558;2022-07-29T04:48:46;18.90;99.90
34460;DHT22;20704;51.260;22.558;2022-07-29T04:51:13;19.50;99.90
34460;DHT22;20704;51.260;22.558;2022-07-29T04:53:39;20.00;99.90
34460;DHT22;20704;51.260;22.558;2022-07-29T04:56:05;20.40;99.90
34460;DHT22;20704;51.260;22.558;2022-07-29T04:58:31;20.80;99.90
34460;DHT22;20704;51.260;22.558;2022-07-29T05:00:59;21.20;99.90
34460;DHT22;20704;51.260;22.558;2022-07-29T05:03:25;21.10;99.90
34460;DHT22;20704;51.260;22.558;2022-07-29T05:05:51;21.70;99.90
34460;DHT22;20704;51.260;22.558;2022-07-29T05:08:17;22.10;99.90
34460;DHT22;20704;51.260;22.558;2022-07-29T05:10:43;22.40;99.90
34460;DHT22;20704;51.260;22.558;2022-07-29T05:13:09;22.30;99.90
34460;DHT22;20704;51.260;22.558;2022-07-29T05:15:36;22.30;99.90
34460;DHT22;20704;51.260;22.558;2022-07-29T05:18:03;22.50;99.90
34460;DHT22;20704;51.260;22.558;2022-07-29T05:20:30;22.60;99.90
34460;DHT22;20704;51.260;22.558;2022-07-29T05:22:57;22.70;99.90
34460;DHT22;20704;51.260;22.558;2022-07-29T05:25:24;22.30;99.90
34460;DHT22;20704;51.260;22.558;2022-07-29T05:27:51;22.80;99.90
34460;DHT22;20704;51.260;22.558;2022-07-29T05:30:18;23.20;99.90
34460;DHT22;20704;51.260;22.558;2022-07-29T05:32:44;23.30;99.90
34460;DHT22;20704;51.260;22.558;2022-07-29T05:35:10;23.50;99.90
34460;DHT22;20704;51.260;22.558;2022-07-29T05:37:36;23.50;99.90
34460;DHT22;20704;51.260;22.558;2022-07-29T05:40:03;22.00;99.90
34460;DHT22;20704;51.260;22.558;2022-07-29T05:42:29;22.30;99.90
34460;DHT22;20704;51.260;22.558;2022-07-29T05:44:55;22.80;99.90
34460;DHT22;20704;51.260;22.558;2022-07-29T05:47:22;22.80;99.90
34460;DHT22;20704;51.260;22.558;2022-07-29T05:49:50;23.30;99.90
34460;DHT22;20704;51.260;22.558;2022-07-29T05:52:17;22.50;99.90
34460;DHT22;20704;51.260;22.558;2022-07-29T05:54:43;21.90;99.90
34460;DHT22;20704;51.260;22.558;2022-07-29T05:57:21;21.90;99.90
34460;DHT22;20704;51.260;22.558;2022-07-29T05:59:48;22.40;99.90
34460;DHT22;20704;51.260;22.558;2022-07-29T06:02:15;22.90;99.90
34460;DHT22;20704;51.260;22.558;2022-07-29T06:04:41;23.80;99.90
34460;DHT22;20704;51.260;22.558;2022-07-29T06:07:07;25.40;99.90
34460;DHT22;20704;51.260;22.558;2022-07-29T06:09:34;24.50;99.90
34460;DHT22;20704;51.260;22.558;2022-07-29T06:12:00;24.40;99.90
34460;DHT22;20704;51.260;22.558;2022-07-29T06:14:26;24.00;99.90
34460;DHT22;20704;51.260;22.558;2022-07-29T06:16:54;24.20;99.90
34460;DHT22;20704;51.260;22.558;2022-07-29T06:19:20;24.40;99.90
34460;DHT22;20704;51.260;22.558;2022-07-29T06:21:47;24.30;99.90
34460;DHT22;20704;51.260;22.558;2022-07-29T06:24:14;24.50;99.90
34460;DHT22;20704;51.260;22.558;2022-07-29T06:26:41;24.70;99.90
34460;DHT22;20704;51.260;22.558;2022-07-29T06:29:08;24.40;99.90
34460;DHT22;20704;51.260;22.558;2022-07-29T06:31:34;24.50;99.90
34460;DHT22;20704;51.260;22.558;2022-07-29T06:34:00;24.30;99.90
34460;DHT22;20704;51.260;22.558;2022-07-29T06:36:26;24.70;99.90
34460;DHT22;20704;51.260;22.558;2022-07-29T06:38:52;24.90;99.90
34460;DHT22;20704;51.260;22.558;2022-07-29T06:41:18;24.30;99.90
34460;DHT22;20704;51.260;22.558;2022-07-29T06:43:45;23.60;99.90
34460;DHT22;20704;51.260;22.558;2022-07-29T06:46:15;24.30;99.90
34460;DHT22;20704;51.260;22.558;2022-07-29T06:48:44;24.40;99.90
34460;DHT22;20704;51.260;22.558;2022-07-29T06:51:11;24.80;99.90
34460;DHT22;20704;51.260;22.558;2022-07-29T06:53:38;25.10;99.90
34460;DHT22;20704;51.260;22.558;2022-07-29T06:56:05;25.30;99.90
34460;DHT22;20704;51.260;22.558;2022-07-29T06:58:34;25.90;99.90
34460;DHT22;20704;51.260;22.558;2022-07-29T07:01:02;25.80;99.20
34460;DHT22;20704;51.260;22.558;2022-07-29T07:03:29;24.10;99.80
34460;DHT22;20704;51.260;22.558;2022-07-29T07:05:55;25.20;99.90
34460;DHT22;20704;51.260;22.558;2022-07-29T07:08:22;25.50;99.60
34460;DHT22;20704;51.260;22.558;2022-07-29T07:10:50;24.70;97.00
34460;DHT22;20704;51.260;22.558;2022-07-29T07:13:16;25.10;97.50
34460;DHT22;20704;51.260;22.558;2022-07-29T07:15:46;24.50;97.50
34460;DHT22;20704;51.260;22.558;2022-07-29T07:18:15;25.10;96.50
34460;DHT22;20704;51.260;22.558;2022-07-29T07:20:41;25.40;96.20
34460;DHT22;20704;51.260;22.558;2022-07-29T07:23:07;25.20;95.80
34460;DHT22;20704;51.260;22.558;2022-07-29T07:25:33;25.20;95.70
34460;DHT22;20704;51.260;22.558;2022-07-29T07:27:59;25.40;95.40
34460;DHT22;20704;51.260;22.558;2022-07-29T07:30:26;24.80;95.00
34460;DHT22;20704;51.260;22.558;2022-07-29T07:32:53;24.20;96.50
34460;DHT22;20704;51.260;22.558;2022-07-29T07:35:19;24.80;95.80
34460;DHT22;20704;51.260;22.558;2022-07-29T07:37:45;25.00;95.20
34460;DHT22;20704;51.260;22.558;2022-07-29T07:40:12;25.00;94.90
34460;DHT22;20704;51.260;22.558;2022-07-29T07:42:39;25.50;94.60
34460;DHT22;20704;51.260;22.558;2022-07-29T07:45:06;25.60;93.90
34460;DHT22;20704;51.260;22.558;2022-07-29T07:47:35;24.40;94.90
34460;DHT22;20704;51.260;22.558;2022-07-29T07:50:03;24.60;94.60
34460;DHT22;20704;51.260;22.558;2022-07-29T07:52:29;24.90;94.30
34460;DHT22;20704;51.260;22.558;2022-07-29T07:54:55;25.40;94.20
34460;DHT22;20704;51.260;22.558;2022-07-29T07:57:21;25.60;93.50
34460;DHT22;20704;51.260;22.558;2022-07-29T07:59:47;25.80;92.90
34460;DHT22;20704;51.260;22.558;2022-07-29T08:02:13;25.50;92.80
34460;DHT22;20704;51.260;22.558;2022-07-29T08:04:39;26.00;93.00
34460;DHT22;20704;51.260;22.558;2022-07-29T08:07:06;26.00;92.70
34460;DHT22;20704;51.260;22.558;2022-07-29T08:09:33;25.40;92.10
34460;DHT22;20704;51.260;22.558;2022-07-29T08:12:00;25.30;92.30
34460;DHT22;20704;51.260;22.558;2022-07-29T08:14:32;23.80;93.80
34460;DHT22;20704;51.260;22.558;2022-07-29T08:16:59;24.50;94.00
34460;DHT22;20704;51.260;22.558;2022-07-29T08:19:25;25.20;93.70
34460;DHT22;20704;51.260;22.558;2022-07-29T08:21:51;25.30;92.80
34460;DHT22;20704;51.260;22.558;2022-07-29T08:24:19;24.80;93.20
34460;DHT22;20704;51.260;22.558;2022-07-29T08:27:04;25.10;92.60
34460;DHT22;20704;51.260;22.558;2022-07-29T08:29:30;25.40;92.90
34460;DHT22;20704;51.260;22.558;2022-07-29T08:31:56;25.50;92.60
34460;DHT22;20704;51.260;22.558;2022-07-29T08:34:22;25.60;93.00
34460;DHT22;20704;51.260;22.558;2022-07-29T08:36:48;26.20;91.70
34460;DHT22;20704;51.260;22.558;2022-07-29T08:39:14;26.20;91.50
34460;DHT22;20704;51.260;22.558;2022-07-29T08:41:40;26.10;91.40
34460;DHT22;20704;51.260;22.558;2022-07-29T08:44:06;26.40;91.00
34460;DHT22;20704;51.260;22.558;2022-07-29T08:46:33;26.30;90.40
34460;DHT22;20704;51.260;22.558;2022-07-29T08:48:59;26.30;89.90
34460;DHT22;20704;51.260;22.558;2022-07-29T08:51:25;26.40;90.30
34460;DHT22;20704;51.260;22.558;2022-07-29T08:53:53;26.40;89.70
34460;DHT22;20704;51.260;22.558;2022-07-29T08:56:20;26.60;90.20
34460;DHT22;20704;51.260;22.558;2022-07-29T08:58:48;26.80;90.00
34460;DHT22;20704;51.260;22.558;2022-07-29T09:01:20;26.70;90.00
34460;DHT22;20704;51.260;22.558;2022-07-29T09:03:47;26.90;88.60
34460;DHT22;20704;51.260;22.558;2022-07-29T09:06:17;26.90;87.50
34460;DHT22;20704;51.260;22.558;2022-07-29T09:08:44;26.90;87.30
34460;DHT22;20704;51.260;22.558;2022-07-29T09:11:11;26.70;87.10
34460;DHT22;20704;51.260;22.558;2022-07-29T09:13:38;26.50;84.50
34460;DHT22;20704;51.260;22.558;2022-07-29T09:16:04;26.30;85.00
34460;DHT22;20704;51.260;22.558;2022-07-29T09:21:05;25.40;85.50
34460;DHT22;20704;51.260;22.558;2022-07-29T09:24:11;24.80;88.10
34460;DHT22;20704;51.260;22.558;2022-07-29T09:26:40;25.50;86.20
34460;DHT22;20704;51.260;22.558;2022-07-29T09:29:19;25.70;85.80
34460;DHT22;20704;51.260;22.558;2022-07-29T09:31:47;26.00;84.50
34460;DHT22;20704;51.260;22.558;2022-07-29T09:34:16;26.30;84.50
34460;DHT22;20704;51.260;22.558;2022-07-29T09:36:48;25.80;83.70
34460;DHT22;20704;51.260;22.558;2022-07-29T09:39:17;25.80;84.40
34460;DHT22;20704;51.260;22.558;2022-07-29T09:41:54;25.70;84.50
34460;DHT22;20704;51.260;22.558;2022-07-29T09:44:22;25.70;85.50
34460;DHT22;20704;51.260;22.558;2022-07-29T09:49:24;25.80;85.60
34460;DHT22;20704;51.260;22.558;2022-07-29T09:52:08;25.70;85.80
34460;DHT22;20704;51.260;22.558;2022-07-29T09:54:35;26.00;85.30
34460;DHT22;20704;51.260;22.558;2022-07-29T09:57:06;25.90;84.90
34460;DHT22;20704;51.260;22.558;2022-07-29T09:59:32;25.90;83.30
34460;DHT22;20704;51.260;22.558;2022-07-29T10:01:59;26.10;84.10
34460;DHT22;20704;51.260;22.558;2022-07-29T10:04:41;26.20;84.20
34460;DHT22;20704;51.260;22.558;2022-07-29T10:07:08;25.80;84.20
34460;DHT22;20704;51.260;22.558;2022-07-29T10:09:35;25.60;84.70
34460;DHT22;20704;51.260;22.558;2022-07-29T10:12:12;25.50;84.80
34460;DHT22;20704;51.260;22.558;2022-07-29T10:14:42;25.90;85.40
34460;DHT22;20704;51.260;22.558;2022-07-29T10:17:09;26.10;85.30
34460;DHT22;20704;51.260;22.558;2022-07-29T10:19:37;26.30;85.10
34460;DHT22;20704;51.260;22.558;2022-07-29T10:22:08;26.40;84.80
34460;DHT22;20704;51.260;22.558;2022-07-29T10:24:35;25.70;85.00
34460;DHT22;20704;51.260;22.558;2022-07-29T10:27:04;25.50;86.90
34460;DHT22;20704;51.260;22.558;2022-07-29T10:29:31;25.90;86.70
34460;DHT22;20704;51.260;22.558;2022-07-29T10:35:12;26.20;85.60
34460;DHT22;20704;51.260;22.558;2022-07-29T10:37:46;26.10;83.70
34460;DHT22;20704;51.260;22.558;2022-07-29T10:43:34;25.80;83.90
34460;DHT22;20704;51.260;22.558;2022-07-29T10:46:04;25.70;85.70
34460;DHT22;20704;51.260;22.558;2022-07-29T10:48:30;25.90;84.90
34460;DHT22;20704;51.260;22.558;2022-07-29T10:51:02;26.10;84.70
34460;DHT22;20704;51.260;22.558;2022-07-29T10:53:49;26.10;84.00
34460;DHT22;20704;51.260;22.558;2022-07-29T10:56:32;26.10;83.60
34460;DHT22;20704;51.260;22.558;2022-07-29T11:01:44;26.00;83.70
34460;DHT22;20704;51.260;22.558;2022-07-29T11:04:10;26.10;83.80
34460;DHT22;20704;51.260;22.558;2022-07-29T11:09:24;26.20;83.10
34460;DHT22;20704;51.260;22.558;2022-07-29T11:11:50;26.40;83.30
34460;DHT22;20704;51.260;22.558;2022-07-29T11:14:16;25.90;82.50
34460;DHT22;20704;51.260;22.558;2022-07-29T11:17:00;26.20;83.60
34460;DHT22;20704;51.260;22.558;2022-07-29T11:19:29;25.30;86.50
34460;DHT22;20704;51.260;22.558;2022-07-29T11:21:56;25.70;83.90
34460;DHT22;20704;51.260;22.558;2022-07-29T11:24:27;25.70;83.20
34460;DHT22;20704;51.260;22.558;2022-07-29T11:27:32;25.90;83.10
34460;DHT22;20704;51.260;22.558;2022-07-29T11:30:05;25.70;83.00
34460;DHT22;20704;51.260;22.558;2022-07-29T11:32:39;25.20;83.50
34460;DHT22;20704;51.260;22.558;2022-07-29T11:35:19;25.40;83.00
34460;DHT22;20704;51.260;22.558;2022-07-29T11:38:23;25.40;83.70
34460;DHT22;20704;51.260;22.558;2022-07-29T11:43:52;25.60;83.30
34460;DHT22;20704;51.260;22.558;2022-07-29T11:49:11;25.80;84.10
34460;DHT22;20704;51.260;22.558;2022-07-29T11:51:38;25.90;82.90
34460;DHT22;20704;51.260;22.558;2022-07-29T11:54:04;25.90;83.50
34460;DHT22;20704;51.260;22.558;2022-07-29T11:56:34;26.00;82.80
34460;DHT22;20704;51.260;22.558;2022-07-29T11:59:06;26.00;82.60
34460;DHT22;20704;51.260;22.558;2022-07-29T12:01:32;26.10;82.10
34460;DHT22;20704;51.260;22.558;2022-07-29T12:04:08;25.80;83.20
34460;DHT22;20704;51.260;22.558;2022-07-29T12:06:34;26.00;83.30
34460;DHT22;20704;51.260;22.558;2022-07-29T12:09:06;26.00;83.10
34460;DHT22;20704;51.260;22.558;2022-07-29T12:11:32;26.10;83.10
34460;DHT22;20704;51.260;22.558;2022-07-29T12:13:58;26.00;82.60
34460;DHT22;20704;51.260;22.558;2022-07-29T12:16:37;25.90;82.40
34460;DHT22;20704;51.260;22.558;2022-07-29T12:19:04;25.90;82.20
34460;DHT22;20704;51.260;22.558;2022-07-29T12:21:46;25.90;83.20
34460;DHT22;20704;51.260;22.558;2022-07-29T12:24:12;25.60;81.50
34460;DHT22;20704;51.260;22.558;2022-07-29T12:26:52;25.70;82.60
34460;DHT22;20704;51.260;22.558;2022-07-29T12:29:19;25.50;82.50
34460;DHT22;20704;51.260;22.558;2022-07-29T12:31:46;25.80;82.20
34460;DHT22;20704;51.260;22.558;2022-07-29T12:34:13;25.80;82.40
34460;DHT22;20704;51.260;22.558;2022-07-29T12:36:41;26.10;82.60
34460;DHT22;20704;51.260;22.558;2022-07-29T12:39:09;26.20;82.20
34460;DHT22;20704;51.260;22.558;2022-07-29T12:41:36;25.60;82.60
34460;DHT22;20704;51.260;22.558;2022-07-29T12:44:02;25.20;81.90
34460;DHT22;20704;51.260;22.558;2022-07-29T12:46:28;25.10;83.00
34460;DHT22;20704;51.260;22.558;2022-07-29T12:48:55;25.50;82.50
34460;DHT22;20704;51.260;22.558;2022-07-29T12:51:32;25.50;82.80
34460;DHT22;20704;51.260;22.558;2022-07-29T12:54:10;25.40;83.00
34460;DHT22;20704;51.260;22.558;2022-07-29T12:56:37;25.70;82.00
34460;DHT22;20704;51.260;22.558;2022-07-29T12:59:20;25.30;81.70
34460;DHT22;20704;51.260;22.558;2022-07-29T13:01:49;25.60;83.10
34460;DHT22;20704;51.260;22.558;2022-07-29T13:04:30;25.70;82.00
34460;DHT22;20704;51.260;22.558;2022-07-29T13:07:02;25.50;82.90
34460;DHT22;20704;51.260;22.558;2022-07-29T13:09:43;25.40;82.30
34460;DHT22;20704;51.260;22.558;2022-07-29T13:12:11;25.60;83.10
34460;DHT22;20704;51.260;22.558;2022-07-29T13:14:42;25.80;83.40
34460;DHT22;20704;51.260;22.558;2022-07-29T13:17:09;25.90;82.90
34460;DHT22;20704;51.260;22.558;2022-07-29T13:19:40;25.60;82.30
34460;DHT22;20704;51.260;22.558;2022-07-29T13:22:08;25.70;83.20
34460;DHT22;20704;51.260;22.558;2022-07-29T13:24:52;25.80;82.60
34460;DHT22;20704;51.260;22.558;2022-07-29T13:27:21;25.80;81.60
34460;DHT22;20704;51.260;22.558;2022-07-29T13:29:47;26.00;82.60
34460;DHT22;20704;51.260;22.558;2022-07-29T13:32:16;26.10;81.90
34460;DHT22;20704;51.260;22.558;2022-07-29T13:34:43;26.20;82.60
34460;DHT22;20704;51.260;22.558;2022-07-29T13:37:09;26.20;81.70
34460;DHT22;20704;51.260;22.558;2022-07-29T13:39:35;26.20;81.80
34460;DHT22;20704;51.260;22.558;2022-07-29T13:42:04;26.20;81.40
34460;DHT22;20704;51.260;22.558;2022-07-29T13:44:30;26.30;81.20
34460;DHT22;20704;51.260;22.558;2022-07-29T13:46:56;26.30;81.20
34460;DHT22;20704;51.260;22.558;2022-07-29T13:49:25;26.20;81.30
34460;DHT22;20704;51.260;22.558;2022-07-29T13:51:51;26.00;81.50
34460;DHT22;20704;51.260;22.558;2022-07-29T13:54:17;25.70;82.20
34460;DHT22;20704;51.260;22.558;2022-07-29T13:56:44;25.90;82.20
34460;DHT22;20704;51.260;22.558;2022-07-29T13:59:10;25.90;81.80
34460;DHT22;20704;51.260;22.558;2022-07-29T14:01:37;25.60;81.30
34460;DHT22;20704;51.260;22.558;2022-07-29T14:04:04;25.40;82.10
34460;DHT22;20704;51.260;22.558;2022-07-29T14:06:31;25.60;81.60
34460;DHT22;20704;51.260;22.558;2022-07-29T14:08:58;25.80;81.70
34460;DHT22;20704;51.260;22.558;2022-07-29T14:11:24;25.90;82.00
34460;DHT22;20704;51.260;22.558;2022-07-29T14:13:50;25.90;82.30
34460;DHT22;20704;51.260;22.558;2022-07-29T14:16:16;25.90;82.90
34460;DHT22;20704;51.260;22.558;2022-07-29T14:18:44;25.70;81.60
34460;DHT22;20704;51.260;22.558;2022-07-29T14:21:10;25.40;83.50
34460;DHT22;20704;51.260;22.558;2022-07-29T14:23:36;25.60;82.90
34460;DHT22;20704;51.260;22.558;2022-07-29T14:26:03;25.80;82.00
34460;DHT22;20704;51.260;22.558;2022-07-29T14:28:29;25.80;81.80
34460;DHT22;20704;51.260;22.558;2022-07-29T14:30:54;25.90;82.10
34460;DHT22;20704;51.260;22.558;2022-07-29T14:33:21;25.80;83.10
34460;DHT22;20704;51.260;22.558;2022-07-29T14:35:47;25.60;82.00
34460;DHT22;20704;51.260;22.558;2022-07-29T14:38:12;25.60;82.10
34460;DHT22;20704;51.260;22.558;2022-07-29T14:40:39;25.60;82.60
34460;DHT22;20704;51.260;22.558;2022-07-29T14:43:05;25.40;82.60
34460;DHT22;20704;51.260;22.558;2022-07-29T14:45:31;25.60;83.50
34460;DHT22;20704;51.260;22.558;2022-07-29T14:47:57;25.60;82.90
34460;DHT22;20704;51.260;22.558;2022-07-29T14:50:23;25.30;83.70
34460;DHT22;20704;51.260;22.558;2022-07-29T14:52:49;25.10;83.90
34460;DHT22;20704;51.260;22.558;2022-07-29T14:55:15;25.20;84.80
34460;DHT22;20704;51.260;22.558;2022-07-29T14:57:41;25.30;83.60
34460;DHT22;20704;51.260;22.558;2022-07-29T15:00:08;25.50;83.50
34460;DHT22;20704;51.260;22.558;2022-07-29T15:02:35;25.50;82.70
34460;DHT22;20704;51.260;22.558;2022-07-29T15:05:00;25.60;83.70
34460;DHT22;20704;51.260;22.558;2022-07-29T15:07:27;25.60;83.10
34460;DHT22;20704;51.260;22.558;2022-07-29T15:09:54;25.30;83.50
34460;DHT22;20704;51.260;22.558;2022-07-29T15:12:20;25.30;82.70
34460;DHT22;20704;51.260;22.558;2022-07-29T15:14:46;24.90;83.90
34460;DHT22;20704;51.260;22.558;2022-07-29T15:17:12;25.00;84.80
34460;DHT22;20704;51.260;22.558;2022-07-29T15:19:38;25.00;84.30
34460;DHT22;20704;51.260;22.558;2022-07-29T15:22:04;25.10;83.90
34460;DHT22;20704;51.260;22.558;2022-07-29T15:24:33;24.90;83.40
34460;DHT22;20704;51.260;22.558;2022-07-29T15:26:59;25.00;84.50
34460;DHT22;20704;51.260;22.558;2022-07-29T15:29:25;24.80;85.50
34460;DHT22;20704;51.260;22.558;2022-07-29T15:31:52;25.00;84.60
34460;DHT22;20704;51.260;22.558;2022-07-29T15:34:18;25.10;84.40
34460;DHT22;20704;51.260;22.558;2022-07-29T15:36:46;25.00;84.60
34460;DHT22;20704;51.260;22.558;2022-07-29T15:39:13;25.00;84.90
34460;DHT22;20704;51.260;22.558;2022-07-29T15:41:39;25.00;84.60
34460;DHT22;20704;51.260;22.558;2022-07-29T15:44:05;25.10;85.10
34460;DHT22;20704;51.260;22.558;2022-07-29T15:46:31;25.10;85.00
34460;DHT22;20704;51.260;22.558;2022-07-29T15:49:16;25.10;84.90
34460;DHT22;20704;51.260;22.558;2022-07-29T15:51:42;25.10;85.40
34460;DHT22;20704;51.260;22.558;2022-07-29T15:54:09;25.00;86.00
34460;DHT22;20704;51.260;22.558;2022-07-29T15:56:35;25.00;86.00
34460;DHT22;20704;51.260;22.558;2022-07-29T15:59:01;25.00;86.30
34460;DHT22;20704;51.260;22.558;2022-07-29T16:01:27;25.00;86.40